createdAt,value
2023-05-10T00:00:46.324Z,14.93
2023-05-10T00:03:12.885Z,14.95
2023-05-10T00:05:39.493Z,14.90
2023-05-10T00:08:06.147Z,15.10
2023-05-10T00:10:32.587Z,15.18
2023-05-10T00:12:59.212Z,14.98
2023-05-10T00:15:25.791Z,15.68
2023-05-10T00:17:52.281Z,15.27
2023-05-10T00:20:19.171Z,15.35
2023-05-10T00:22:45.913Z,15.27
2023-05-10T00:25:12.706Z,15.40
2023-05-10T00:27:41.661Z,15.60
2023-05-10T00:30:10.708Z,14.60
2023-05-10T00:32:37.358Z,15.02
2023-05-10T00:35:03.956Z,15.00
2023-05-10T00:37:30.838Z,15.00
2023-05-10T00:39:57.227Z,15.57
2023-05-10T00:42:23.750Z,15.32
2023-05-10T00:44:50.142Z,15.70
2023-05-10T00:47:17.673Z,14.77
2023-05-10T00:49:44.701Z,15.93
2023-05-10T00:52:11.204Z,15.25
2023-05-10T00:54:37.956Z,15.40
2023-05-10T00:57:04.732Z,15.35
2023-05-10T00:59:31.637Z,15.30
2023-05-10T01:01:58.889Z,16.27
2023-05-10T01:04:26.539Z,15.60
2023-05-10T01:06:54.492Z,15.75
2023-05-10T01:09:22.602Z,15.93
2023-05-10T01:11:49.835Z,15.50
2023-05-10T01:14:19.719Z,15.10
2023-05-10T01:16:47.919Z,16.10
2023-05-10T01:19:23.935Z,15.52
2023-05-10T01:22:19.487Z,15.68
2023-05-10T01:25:08.942Z,15.35
2023-05-10T01:27:35.351Z,15.77
2023-05-10T01:30:32.312Z,15.90
2023-05-10T01:33:02.615Z,16.10
2023-05-10T01:35:40.931Z,16.02
2023-05-10T01:38:26.195Z,16.35
2023-05-10T01:41:01.874Z,16.50
2023-05-10T01:43:32.763Z,15.77
2023-05-10T01:46:11.325Z,16.15
2023-05-10T01:48:48.080Z,16.52
2023-05-10T01:51:20.621Z,16.10
2023-05-10T01:53:49.656Z,15.95
2023-05-10T01:56:17.023Z,16.23
2023-05-10T01:58:48.250Z,15.88
2023-05-10T02:01:15.858Z,16.00
2023-05-10T02:03:44.706Z,16.00
2023-05-10T02:06:13.784Z,16.35
2023-05-10T02:08:42.095Z,16.20
2023-05-10T02:11:12.164Z,15.15
2023-05-10T02:13:40.348Z,16.95
2023-05-10T02:16:08.260Z,15.77
2023-05-10T02:18:36.910Z,15.88
2023-05-10T02:21:04.255Z,16.38
2023-05-10T02:23:32.153Z,15.68
2023-05-10T02:25:59.909Z,16.80
2023-05-10T02:28:27.484Z,17.30
2023-05-10T02:30:55.355Z,15.80
2023-05-10T02:33:23.397Z,15.95
2023-05-10T02:35:51.860Z,16.73
2023-05-10T02:38:21.147Z,16.17
2023-05-10T02:40:48.574Z,15.82
2023-05-10T02:43:18.020Z,15.90
2023-05-10T02:45:47.891Z,16.07
2023-05-10T02:48:14.570Z,16.00
2023-05-10T02:50:45.440Z,16.95
2023-05-10T02:53:16.028Z,16.33
2023-05-10T02:55:46.001Z,15.45
2023-05-10T02:58:12.500Z,16.10
2023-05-10T03:00:38.928Z,16.52
2023-05-10T03:03:05.419Z,16.35
2023-05-10T03:05:32.169Z,16.23
2023-05-10T03:07:58.690Z,13.98
2023-05-10T03:10:30.364Z,12.35
2023-05-10T03:13:08.673Z,12.60
2023-05-10T03:15:59.132Z,12.88
2023-05-10T03:18:40.754Z,12.45
2023-05-10T03:21:09.940Z,11.95
2023-05-10T03:23:48.785Z,12.38
2023-05-10T03:26:21.467Z,12.73
2023-05-10T03:28:49.309Z,12.70
2023-05-10T03:31:16.413Z,12.50
2023-05-10T03:33:50.476Z,12.30
2023-05-10T03:36:17.157Z,13.40
2023-05-10T03:38:43.655Z,13.02
2023-05-10T03:41:10.468Z,12.98
2023-05-10T03:43:37.543Z,13.05
2023-05-10T03:46:04.599Z,12.90
2023-05-10T03:48:31.664Z,12.80
2023-05-10T03:50:58.160Z,12.55
2023-05-10T03:53:25.105Z,13.20
2023-05-10T03:55:51.676Z,12.45
2023-05-10T03:58:18.107Z,13.10
2023-05-10T04:00:46.155Z,12.43
2023-05-10T04:03:13.877Z,12.70
2023-05-10T04:05:40.952Z,12.23
2023-05-10T04:08:07.493Z,12.70
2023-05-10T04:10:33.932Z,12.38
2023-05-10T04:13:00.766Z,12.15
2023-05-10T04:15:27.259Z,12.95
2023-05-10T04:17:54.597Z,12.85
2023-05-10T04:20:21.366Z,12.30
2023-05-10T04:22:47.855Z,12.18
2023-05-10T04:25:14.618Z,13.25
2023-05-10T04:27:41.069Z,12.77
2023-05-10T04:30:08.334Z,12.60
2023-05-10T04:32:34.813Z,12.75
2023-05-10T04:35:03.878Z,13.48
2023-05-10T04:37:30.389Z,13.23
2023-05-10T04:39:56.794Z,12.80
2023-05-10T04:42:23.225Z,12.48
2023-05-10T04:44:49.590Z,13.13
2023-05-10T04:47:17.194Z,14.07
2023-05-10T04:49:43.621Z,13.07
2023-05-10T04:52:10.019Z,12.60
2023-05-10T04:54:36.596Z,12.85
2023-05-10T04:57:03.143Z,13.75
2023-05-10T04:59:29.764Z,12.95
2023-05-10T05:01:56.176Z,13.23
2023-05-10T05:04:24.401Z,13.32
2023-05-10T05:06:53.671Z,13.15
2023-05-10T05:09:20.799Z,13.88
2023-05-10T05:11:47.252Z,13.35
2023-05-10T05:14:13.745Z,13.13
2023-05-10T05:16:40.445Z,13.70
2023-05-10T05:19:07.613Z,13.13
2023-05-10T05:21:34.258Z,13.48
2023-05-10T05:24:00.948Z,13.05
2023-05-10T05:26:27.628Z,14.15
2023-05-10T05:28:55.472Z,13.43
2023-05-10T05:31:22.211Z,13.90
2023-05-10T05:33:48.737Z,13.75
2023-05-10T05:36:15.262Z,13.60
2023-05-10T05:38:41.824Z,13.40
2023-05-10T05:41:08.270Z,13.68
2023-05-10T05:43:37.451Z,14.10
2023-05-10T05:46:04.939Z,13.52
2023-05-10T05:48:31.923Z,13.43
2023-05-10T05:50:58.803Z,13.20
2023-05-10T05:53:25.317Z,13.60
2023-05-10T05:55:56.252Z,13.43
2023-05-10T05:58:23.495Z,13.52
2023-05-10T06:00:53.602Z,14.05
2023-05-10T06:03:20.411Z,13.20
2023-05-10T06:05:47.422Z,12.43
2023-05-10T06:08:14.329Z,13.60
2023-05-10T06:10:40.723Z,13.50
2023-05-10T06:13:07.202Z,12.98
2023-05-10T06:15:33.703Z,13.30
2023-05-10T06:18:00.342Z,14.25
2023-05-10T06:20:26.959Z,13.88
2023-05-10T06:22:53.586Z,14.82
2023-05-10T06:25:20.054Z,13.88
2023-05-10T06:27:53.451Z,13.45
2023-05-10T06:30:21.146Z,13.48
2023-05-10T06:32:47.714Z,15.10
2023-05-10T06:35:14.696Z,14.35
2023-05-10T06:37:41.165Z,13.57
2023-05-10T06:40:08.487Z,13.45
2023-05-10T06:42:35.093Z,13.57
2023-05-10T06:45:01.635Z,13.77
2023-05-10T06:47:28.124Z,13.77
2023-05-10T06:49:54.668Z,13.48
2023-05-10T06:52:21.079Z,13.82
2023-05-10T06:54:47.568Z,13.60
2023-05-10T06:57:27.638Z,14.50
2023-05-10T06:59:57.612Z,13.38
2023-05-10T07:02:24.430Z,13.82
2023-05-10T07:04:52.720Z,13.40
2023-05-10T07:07:19.838Z,14.77
2023-05-10T07:09:46.686Z,13.88
2023-05-10T07:12:15.430Z,15.40
2023-05-10T07:14:43.265Z,13.17
2023-05-10T07:17:10.125Z,12.93
2023-05-10T07:19:36.914Z,13.27
2023-05-10T07:22:03.597Z,13.45
2023-05-10T07:24:30.810Z,13.23
2023-05-10T07:26:57.323Z,13.13
2023-05-10T07:29:23.774Z,13.57
2023-05-10T07:31:50.200Z,13.40
2023-05-10T07:34:16.853Z,13.55
2023-05-10T07:36:43.458Z,13.40
2023-05-10T07:39:09.967Z,13.75
2023-05-10T07:41:38.495Z,13.38
2023-05-10T07:44:05.420Z,13.35
2023-05-10T07:46:32.140Z,13.27
2023-05-10T07:48:58.572Z,12.90
2023-05-10T07:51:25.108Z,13.88
2023-05-10T07:53:51.566Z,17.20
2023-05-10T07:56:28.099Z,15.82
2023-05-10T07:58:55.521Z,16.38
2023-05-10T08:01:22.387Z,16.65
2023-05-10T08:03:49.797Z,16.13
2023-05-10T08:06:18.611Z,16.45
2023-05-10T08:08:50.091Z,16.08
2023-05-10T08:11:18.460Z,15.90
2023-05-10T08:13:45.841Z,16.27
2023-05-10T08:16:12.317Z,16.40
2023-05-10T08:18:39.539Z,16.52
2023-05-10T08:21:06.847Z,16.13
2023-05-10T08:23:33.873Z,16.65
2023-05-10T08:26:01.122Z,16.88
2023-05-10T08:28:28.063Z,15.82
2023-05-10T08:30:54.826Z,16.55
2023-05-10T08:33:21.400Z,15.68
2023-05-10T08:35:47.985Z,16.38
2023-05-10T08:38:16.384Z,16.50
2023-05-10T08:40:44.283Z,16.88
2023-05-10T08:43:12.947Z,16.85
2023-05-10T08:45:46.483Z,16.08
2023-05-10T08:48:12.933Z,16.05
2023-05-10T08:50:41.431Z,16.90
2023-05-10T08:53:12.002Z,16.20
2023-05-10T08:55:39.872Z,16.88
2023-05-10T08:58:07.427Z,18.65
2023-05-10T09:00:34.914Z,19.17
2023-05-10T09:03:02.579Z,16.83
2023-05-10T09:05:29.236Z,16.58
2023-05-10T09:07:55.788Z,17.02
2023-05-10T09:10:23.697Z,17.27
2023-05-10T09:12:51.691Z,17.30
2023-05-10T09:15:20.301Z,18.75
2023-05-10T09:17:47.210Z,20.05
2023-05-10T09:20:13.810Z,16.98
2023-05-10T09:22:41.065Z,18.00
2023-05-10T09:25:13.387Z,18.45
2023-05-10T09:27:40.972Z,17.73
2023-05-10T09:30:08.713Z,18.58
2023-05-10T09:32:39.325Z,18.25
2023-05-10T09:35:17.042Z,17.73
2023-05-10T09:37:46.904Z,18.42
2023-05-10T09:40:21.127Z,16.52
2023-05-10T09:43:03.791Z,17.58
2023-05-10T09:45:31.892Z,17.48
2023-05-10T09:48:00.006Z,17.60
2023-05-10T09:50:27.553Z,17.75
2023-05-10T09:52:58.743Z,17.52
2023-05-10T09:55:27.880Z,19.15
2023-05-10T09:58:02.229Z,19.08
2023-05-10T10:00:35.097Z,20.77
2023-05-10T10:03:02.995Z,20.08
2023-05-10T10:05:34.076Z,20.38
2023-05-10T10:08:02.265Z,20.70
2023-05-10T10:10:29.274Z,20.80
2023-05-10T10:12:56.577Z,22.85
2023-05-10T10:15:26.979Z,22.67
2023-05-10T10:17:54.367Z,30.35
2023-05-10T10:20:23.120Z,33.17
2023-05-10T10:22:49.800Z,35.20
2023-05-10T10:25:18.708Z,36.05
2023-05-10T10:27:54.690Z,36.53
2023-05-10T10:30:44.774Z,35.75
2023-05-10T10:33:30.791Z,37.63
2023-05-10T10:36:00.939Z,37.22
2023-05-10T10:38:37.898Z,37.55
2023-05-10T10:41:11.833Z,38.72
2023-05-10T10:43:38.396Z,39.80
2023-05-10T10:46:18.459Z,38.70
2023-05-10T10:48:50.707Z,40.70
2023-05-10T10:51:17.556Z,40.35
2023-05-10T10:53:44.414Z,39.92
2023-05-10T10:56:16.064Z,40.70
2023-05-10T10:58:49.728Z,40.00
2023-05-10T11:01:18.216Z,39.38
2023-05-10T11:04:04.966Z,41.00
2023-05-10T11:06:33.357Z,40.78
2023-05-10T11:09:00.669Z,39.28
2023-05-10T11:11:27.231Z,38.70
2023-05-10T11:13:53.736Z,39.70
2023-05-10T11:16:21.568Z,38.53
2023-05-10T11:19:14.889Z,38.67
2023-05-10T11:21:47.523Z,35.88
2023-05-10T11:24:28.193Z,35.33
2023-05-10T11:26:54.882Z,34.25
2023-05-10T11:29:21.467Z,33.85
2023-05-10T11:31:49.382Z,31.48
2023-05-10T11:34:34.306Z,30.60
2023-05-10T11:37:03.879Z,30.33
2023-05-10T11:39:32.509Z,31.52
2023-05-10T11:41:59.252Z,30.50
2023-05-10T11:44:31.949Z,31.05
2023-05-10T11:47:02.551Z,30.92
2023-05-10T11:49:29.217Z,32.60
2023-05-10T11:52:08.179Z,34.25
2023-05-10T11:54:36.072Z,36.80
2023-05-10T11:57:02.855Z,36.35
2023-05-10T11:59:29.357Z,35.42
2023-05-10T12:01:56.200Z,36.17
2023-05-10T12:04:22.957Z,37.47
2023-05-10T12:06:49.571Z,39.15
2023-05-10T12:09:17.632Z,38.80
2023-05-10T12:11:45.858Z,39.08
2023-05-10T12:14:12.484Z,39.58
2023-05-10T12:16:39.399Z,37.85
2023-05-10T12:19:09.144Z,39.03
2023-05-10T12:21:35.706Z,37.65
2023-05-10T12:24:06.134Z,35.83
2023-05-10T12:26:33.016Z,32.38
2023-05-10T12:29:20.988Z,30.48
2023-05-10T12:32:01.248Z,27.77
2023-05-10T12:37:06.416Z,27.83
2023-05-10T12:39:45.836Z,28.13
2023-05-10T12:42:12.688Z,29.13
2023-05-10T12:44:39.982Z,30.42
2023-05-10T12:47:06.863Z,30.25
2023-05-10T12:49:33.380Z,26.67
2023-05-10T12:51:59.859Z,25.00
2023-05-10T12:54:26.723Z,24.77
2023-05-10T12:56:53.230Z,24.52
2023-05-10T12:59:19.636Z,23.50
2023-05-10T13:01:46.205Z,24.92
2023-05-10T13:04:12.744Z,23.65
2023-05-10T13:06:39.215Z,23.00
2023-05-10T13:09:05.681Z,23.38
2023-05-10T13:11:32.182Z,24.20
2023-05-10T13:13:58.923Z,23.88
2023-05-10T13:16:25.583Z,24.02
2023-05-10T13:18:55.455Z,23.05
2023-05-10T13:21:21.994Z,24.92
2023-05-10T13:23:48.483Z,26.20
2023-05-10T13:26:15.056Z,24.48
2023-05-10T13:28:41.585Z,21.98
2023-05-10T13:31:08.609Z,22.42
2023-05-10T13:33:35.038Z,20.88
2023-05-10T13:36:01.452Z,21.15
2023-05-10T13:38:27.844Z,19.65
2023-05-10T13:40:54.374Z,19.95
2023-05-10T13:43:20.864Z,20.48
2023-05-10T13:45:47.385Z,20.55
2023-05-10T13:48:13.795Z,21.92
2023-05-10T13:50:40.231Z,21.05
2023-05-10T13:53:06.657Z,21.30
2023-05-10T13:55:33.320Z,21.13
2023-05-10T13:57:59.840Z,21.17
2023-05-10T14:00:26.209Z,21.83
2023-05-10T14:02:52.660Z,23.17
2023-05-10T14:05:22.310Z,23.27
2023-05-10T14:07:52.270Z,22.55
2023-05-10T14:10:18.786Z,19.58
2023-05-10T14:12:45.246Z,19.27
2023-05-10T14:15:12.553Z,18.77
2023-05-10T14:17:39.090Z,18.45
2023-05-10T14:20:08.610Z,18.05
2023-05-10T14:22:35.409Z,19.02
2023-05-10T14:25:02.038Z,18.70
2023-05-10T14:27:28.530Z,19.23
2023-05-10T14:29:55.031Z,20.58
2023-05-10T14:32:21.534Z,20.48
2023-05-10T14:34:48.106Z,20.10
2023-05-10T14:37:14.919Z,19.67
2023-05-10T14:39:47.997Z,19.25
2023-05-10T14:42:14.365Z,19.42
2023-05-10T14:44:40.732Z,19.08
2023-05-10T14:47:07.779Z,19.05
2023-05-10T14:49:34.482Z,18.80
2023-05-10T14:52:01.219Z,17.55
2023-05-10T14:54:28.320Z,17.73
2023-05-10T14:56:54.801Z,18.33
2023-05-10T14:59:21.590Z,18.02
2023-05-10T15:01:48.548Z,18.77
2023-05-10T15:04:17.324Z,18.30
2023-05-10T15:06:44.243Z,18.13
2023-05-10T15:09:10.653Z,17.95
2023-05-10T15:11:37.235Z,18.77
2023-05-10T15:14:03.852Z,17.90
2023-05-10T15:16:30.781Z,18.58
2023-05-10T15:18:58.841Z,18.60
2023-05-10T15:21:25.351Z,17.17
2023-05-10T15:23:51.811Z,17.15
2023-05-10T15:26:18.271Z,17.30
2023-05-10T15:28:44.875Z,18.35
2023-05-10T15:31:11.946Z,17.52
2023-05-10T15:33:39.043Z,17.38
2023-05-10T15:36:05.765Z,18.10
2023-05-10T15:38:32.437Z,17.38
2023-05-10T15:40:59.250Z,16.85
2023-05-10T15:43:25.678Z,16.92
2023-05-10T15:45:52.211Z,17.90
2023-05-10T15:48:18.683Z,17.55
2023-05-10T15:50:45.209Z,17.48
2023-05-10T15:53:12.116Z,18.52
2023-05-10T15:55:38.649Z,17.88
2023-05-10T15:58:05.038Z,20.02
2023-05-10T16:00:31.415Z,35.90
2023-05-10T16:02:58.182Z,34.35
2023-05-10T16:05:24.728Z,31.33
2023-05-10T16:07:51.222Z,31.65
2023-05-10T16:10:17.655Z,32.28
2023-05-10T16:12:44.070Z,32.28
2023-05-10T16:15:10.809Z,32.60
2023-05-10T16:17:37.438Z,34.08
2023-05-10T16:20:05.220Z,34.28
2023-05-10T16:22:31.714Z,34.78
2023-05-10T16:24:58.876Z,35.03
2023-05-10T16:27:28.559Z,35.70
2023-05-10T16:29:54.948Z,35.45
2023-05-10T16:32:21.483Z,36.63
2023-05-10T16:34:47.936Z,37.15
2023-05-10T16:37:14.433Z,36.60
2023-05-10T16:39:40.927Z,38.03
2023-05-10T16:42:07.634Z,37.15
2023-05-10T16:44:34.211Z,37.80
2023-05-10T16:47:00.862Z,37.63
2023-05-10T16:49:27.337Z,38.22
2023-05-10T16:51:53.770Z,37.45
2023-05-10T16:54:21.797Z,36.95
2023-05-10T16:56:48.249Z,37.08
2023-05-10T16:59:14.711Z,38.03
2023-05-10T17:01:41.465Z,52.65
2023-05-10T17:04:08.104Z,54.58
2023-05-10T17:06:36.640Z,53.13
2023-05-10T17:09:03.930Z,38.58
2023-05-10T17:11:30.299Z,37.55
2023-05-10T17:13:57.342Z,37.03
2023-05-10T17:16:23.777Z,37.90
2023-05-10T17:18:50.332Z,36.35
2023-05-10T17:21:17.144Z,35.53
2023-05-10T17:23:43.773Z,36.33
2023-05-10T17:26:10.486Z,43.20
2023-05-10T17:28:36.903Z,37.40
2023-05-10T17:31:03.345Z,35.03
2023-05-10T17:33:29.787Z,38.72
2023-05-10T17:35:56.682Z,38.90
2023-05-10T17:38:23.067Z,39.10
2023-05-10T17:40:49.581Z,38.67
2023-05-10T17:43:16.139Z,38.63
2023-05-10T17:45:44.011Z,39.55
2023-05-10T17:48:11.297Z,41.13
2023-05-10T17:50:37.969Z,40.83
2023-05-10T17:53:04.347Z,41.75
2023-05-10T17:55:31.160Z,41.53
2023-05-10T17:58:02.321Z,42.70
2023-05-10T18:00:28.749Z,41.75
2023-05-10T18:02:55.278Z,41.42
2023-05-10T18:05:22.119Z,41.78
2023-05-10T18:07:48.948Z,40.75
2023-05-10T18:10:15.464Z,38.97
2023-05-10T18:12:41.943Z,39.00
2023-05-10T18:15:08.861Z,39.03
2023-05-10T18:17:35.379Z,38.67
2023-05-10T18:20:02.223Z,38.58
2023-05-10T18:22:28.692Z,39.72
2023-05-10T18:24:55.542Z,40.38
2023-05-10T18:27:22.328Z,39.63
2023-05-10T18:29:48.693Z,40.53
2023-05-10T18:32:15.425Z,39.80
2023-05-10T18:34:41.830Z,40.20
2023-05-10T18:37:09.538Z,39.15
2023-05-10T18:39:39.149Z,38.88
2023-05-10T18:42:06.061Z,40.08
2023-05-10T18:44:32.624Z,38.03
2023-05-10T18:46:59.331Z,38.97
2023-05-10T18:49:26.687Z,39.75
2023-05-10T18:51:53.448Z,39.67
2023-05-10T18:54:20.548Z,39.22
2023-05-10T18:56:47.262Z,39.17
2023-05-10T18:59:13.906Z,38.33
2023-05-10T19:01:41.534Z,38.38
2023-05-10T19:04:08.885Z,36.65
2023-05-10T19:06:36.119Z,36.55
2023-05-10T19:09:03.191Z,37.25
2023-05-10T19:11:32.138Z,36.47
2023-05-10T19:13:59.033Z,36.28
2023-05-10T19:16:28.663Z,36.05
2023-05-10T19:18:56.580Z,36.00
2023-05-10T19:21:23.086Z,35.65
2023-05-10T19:23:49.603Z,37.05
2023-05-10T19:26:16.083Z,36.22
2023-05-10T19:28:42.471Z,36.10
2023-05-10T19:31:08.948Z,35.83
2023-05-10T19:33:42.119Z,36.42
2023-05-10T19:36:09.238Z,35.97
2023-05-10T19:38:38.063Z,36.40
2023-05-10T19:41:04.696Z,36.28
2023-05-10T19:43:34.584Z,37.63
2023-05-10T19:46:02.053Z,37.60
2023-05-10T19:48:28.800Z,37.40
2023-05-10T19:51:01.474Z,37.50
2023-05-10T19:53:28.149Z,36.92
2023-05-10T19:55:54.948Z,38.00
2023-05-10T19:58:21.503Z,38.55
2023-05-10T20:00:48.028Z,38.22
2023-05-10T20:03:14.535Z,38.95
2023-05-10T20:05:41.067Z,39.00
2023-05-10T20:08:08.394Z,39.83
2023-05-10T20:10:34.820Z,39.10
2023-05-10T20:13:01.216Z,40.05
2023-05-10T20:15:29.384Z,39.45
2023-05-10T20:17:55.853Z,39.22
2023-05-10T20:20:22.679Z,41.35
2023-05-10T20:22:49.782Z,40.50
2023-05-10T20:25:17.959Z,41.53
2023-05-10T20:27:44.517Z,41.97
2023-05-10T20:30:11.404Z,41.45
2023-05-10T20:32:38.242Z,40.80
2023-05-10T20:35:05.854Z,41.42
2023-05-10T20:37:32.303Z,41.35
2023-05-10T20:39:58.797Z,41.17
2023-05-10T20:42:25.944Z,41.03
2023-05-10T20:44:52.696Z,41.75
2023-05-10T20:47:19.989Z,41.22
2023-05-10T20:49:46.607Z,42.33
2023-05-10T20:52:16.242Z,42.92
2023-05-10T20:54:43.047Z,41.47
2023-05-10T20:57:12.598Z,41.25
2023-05-10T20:59:39.630Z,39.83
2023-05-10T21:02:06.842Z,41.70
2023-05-10T21:04:33.673Z,41.25
2023-05-10T21:07:03.498Z,42.28
2023-05-10T21:09:30.147Z,42.53
2023-05-10T21:11:58.166Z,43.30
2023-05-10T21:14:25.095Z,46.25
2023-05-10T21:16:52.038Z,45.28
2023-05-10T21:19:19.206Z,46.63
2023-05-10T21:21:46.497Z,47.63
2023-05-10T21:24:13.992Z,45.70
2023-05-10T21:26:40.943Z,46.58
2023-05-10T21:29:07.846Z,46.92
2023-05-10T21:31:34.820Z,47.35
2023-05-10T21:34:01.631Z,49.58
2023-05-10T21:36:28.466Z,48.03
2023-05-10T21:38:55.044Z,47.05
2023-05-10T21:41:22.048Z,46.25
2023-05-10T21:43:48.939Z,45.25
2023-05-10T21:46:17.959Z,45.60
2023-05-10T21:48:45.195Z,45.63
2023-05-10T21:51:12.284Z,45.17
2023-05-10T21:53:39.223Z,44.75
2023-05-10T21:56:07.292Z,46.85
2023-05-10T21:58:34.130Z,46.13
2023-05-10T22:01:04.276Z,46.72
2023-05-10T22:03:31.725Z,45.40
2023-05-10T22:05:58.639Z,48.30
2023-05-10T22:08:25.741Z,45.80
2023-05-10T22:10:52.899Z,46.75
2023-05-10T22:13:19.548Z,45.67
2023-05-10T22:15:46.375Z,46.05
2023-05-10T22:18:13.323Z,46.63
2023-05-10T22:20:43.546Z,47.75
2023-05-10T22:25:37.299Z,49.22
2023-05-10T22:28:04.765Z,50.90
2023-05-10T22:30:33.073Z,51.13
2023-05-10T22:33:00.827Z,49.72
2023-05-10T22:35:28.166Z,46.80
2023-05-10T22:37:54.574Z,47.20
2023-05-10T22:40:21.507Z,49.28
2023-05-10T22:42:47.971Z,48.35
2023-05-10T22:45:14.407Z,50.65
2023-05-10T22:47:41.081Z,49.67
2023-05-10T22:50:08.709Z,50.67
2023-05-10T22:52:35.356Z,49.30
2023-05-10T22:55:01.931Z,49.58
2023-05-10T22:57:28.465Z,50.30
2023-05-10T22:59:54.896Z,50.97
2023-05-10T23:02:21.404Z,51.40
2023-05-10T23:04:48.115Z,52.17
2023-05-10T23:07:14.584Z,51.40
2023-05-10T23:09:41.120Z,48.85
2023-05-10T23:12:07.689Z,51.15
2023-05-10T23:14:34.171Z,52.63
2023-05-10T23:17:00.793Z,50.90
2023-05-10T23:19:27.664Z,52.00
2023-05-10T23:21:54.111Z,51.17
2023-05-10T23:24:20.604Z,51.80
2023-05-10T23:26:47.298Z,52.13
2023-05-10T23:29:13.904Z,50.67
2023-05-10T23:31:45.272Z,48.70
2023-05-10T23:34:12.467Z,49.00
2023-05-10T23:36:39.305Z,51.63
2023-05-10T23:39:06.540Z,49.78
2023-05-10T23:41:33.000Z,49.20
2023-05-10T23:44:01.396Z,52.00
2023-05-10T23:46:28.161Z,51.15
2023-05-10T23:48:54.610Z,51.92
2023-05-10T23:51:21.138Z,54.22
2023-05-10T23:53:48.820Z,55.70
2023-05-10T23:56:15.307Z,53.13
2023-05-10T23:58:42.594Z,54.50
